sensor_id;sensor_type;location;lat;lon;timestamp;temperature;humidity
6357;DHT22;3211;53.452;-2.264;2023-03-01T00:02:22;6.90;99.90
6357;DHT22;3211;53.452;-2.264;2023-03-01T00:04:49;6.90;99.90
6357;DHT22;3211;53.452;-2.264;2023-03-01T00:07:15;6.80;99.90
6357;DHT22;3211;53.452;-2.264;2023-03-01T00:09:42;6.80;99.90
6357;DHT22;3211;53.452;-2.264;2023-03-01T00:12:12;6.70;99.90
6357;DHT22;3211;53.452;-2.264;2023-03-01T00:14:40;6.80;99.90
6357;DHT22;3211;53.452;-2.264;2023-03-01T00:17:06;6.70;99.90
6357;DHT22;3211;53.452;-2.264;2023-03-01T00:19:34;6.60;99.90
6357;DHT22;3211;53.452;-2.264;2023-03-01T00:22:01;6.70;99.90
6357;DHT22;3211;53.452;-2.264;2023-03-01T00:24:28;6.70;99.90
6357;DHT22;3211;53.452;-2.264;2023-03-01T00:26:55;6.70;99.90
6357;DHT22;3211;53.452;-2.264;2023-03-01T00:29:24;6.90;99.90
6357;DHT22;3211;53.452;-2.264;2023-03-01T00:31:51;6.90;99.90
6357;DHT22;3211;53.452;-2.264;2023-03-01T00:34:18;7.00;99.90
6357;DHT22;3211;53.452;-2.264;2023-03-01T00:36:45;7.10;99.90
6357;DHT22;3211;53.452;-2.264;2023-03-01T00:39:14;7.10;99.90
6357;DHT22;3211;53.452;-2.264;2023-03-01T00:41:41;7.10;99.90
6357;DHT22;3211;53.452;-2.264;2023-03-01T00:44:08;6.90;99.90
6357;DHT22;3211;53.452;-2.264;2023-03-01T00:46:37;7.00;99.90
6357;DHT22;3211;53.452;-2.264;2023-03-01T00:49:04;7.10;99.90
6357;DHT22;3211;53.452;-2.264;2023-03-01T00:51:31;7.00;99.90
6357;DHT22;3211;53.452;-2.264;2023-03-01T00:54:00;7.00;99.90
6357;DHT22;3211;53.452;-2.264;2023-03-01T00:56:27;7.00;99.90
6357;DHT22;3211;53.452;-2.264;2023-03-01T00:58:54;6.90;99.90
6357;DHT22;3211;53.452;-2.264;2023-03-01T01:01:23;6.90;99.90
6357;DHT22;3211;53.452;-2.264;2023-03-01T01:03:53;7.00;99.90
6357;DHT22;3211;53.452;-2.264;2023-03-01T01:06:22;7.00;99.90
6357;DHT22;3211;53.452;-2.264;2023-03-01T01:08:50;7.00;99.90
6357;DHT22;3211;53.452;-2.264;2023-03-01T01:11:18;7.00;99.90
6357;DHT22;3211;53.452;-2.264;2023-03-01T01:13:46;7.10;99.90
6357;DHT22;3211;53.452;-2.264;2023-03-01T01:16:14;7.00;99.90
6357;DHT22;3211;53.452;-2.264;2023-03-01T01:18:41;7.10;99.90
6357;DHT22;3211;53.452;-2.264;2023-03-01T01:21:11;7.00;99.90
6357;DHT22;3211;53.452;-2.264;2023-03-01T01:23:39;6.90;99.90
6357;DHT22;3211;53.452;-2.264;2023-03-01T01:26:08;6.90;99.90
6357;DHT22;3211;53.452;-2.264;2023-03-01T01:28:36;7.00;99.90
6357;DHT22;3211;53.452;-2.264;2023-03-01T01:31:04;6.90;99.90
6357;DHT22;3211;53.452;-2.264;2023-03-01T01:33:31;6.80;99.90
6357;DHT22;3211;53.452;-2.264;2023-03-01T01:35:58;6.80;99.90
6357;DHT22;3211;53.452;-2.264;2023-03-01T01:38:26;6.80;99.90
6357;DHT22;3211;53.452;-2.264;2023-03-01T01:40:53;6.90;99.90
6357;DHT22;3211;53.452;-2.264;2023-03-01T01:43:22;7.10;99.90
6357;DHT22;3211;53.452;-2.264;2023-03-01T01:45:50;7.00;99.90
6357;DHT22;3211;53.452;-2.264;2023-03-01T01:48:20;7.10;99.90
6357;DHT22;3211;53.452;-2.264;2023-03-01T01:50:55;7.00;99.90
6357;DHT22;3211;53.452;-2.264;2023-03-01T01:53:22;6.90;99.90
6357;DHT22;3211;53.452;-2.264;2023-03-01T01:55:53;7.00;99.90
6357;DHT22;3211;53.452;-2.264;2023-03-01T01:58:24;7.00;99.90
6357;DHT22;3211;53.452;-2.264;2023-03-01T02:00:53;7.00;99.90
6357;DHT22;3211;53.452;-2.264;2023-03-01T02:03:24;6.90;99.90
6357;DHT22;3211;53.452;-2.264;2023-03-01T02:05:58;6.90;99.90
6357;DHT22;3211;53.452;-2.264;2023-03-01T02:08:29;6.90;99.90
6357;DHT22;3211;53.452;-2.264;2023-03-01T02:10:59;6.90;99.90
6357;DHT22;3211;53.452;-2.264;2023-03-01T02:13:26;6.90;99.90
6357;DHT22;3211;53.452;-2.264;2023-03-01T02:15:53;6.90;99.90
6357;DHT22;3211;53.452;-2.264;2023-03-01T02:18:22;6.80;99.90
6357;DHT22;3211;53.452;-2.264;2023-03-01T02:21:04;6.90;99.90
6357;DHT22;3211;53.452;-2.264;2023-03-01T02:23:33;6.90;99.90
6357;DHT22;3211;53.452;-2.264;2023-03-01T02:26:04;6.80;99.90
6357;DHT22;3211;53.452;-2.264;2023-03-01T02:28:36;6.70;99.90
6357;DHT22;3211;53.452;-2.264;2023-03-01T02:31:05;6.60;99.90
6357;DHT22;3211;53.452;-2.264;2023-03-01T02:33:51;6.50;99.90
6357;DHT22;3211;53.452;-2.264;2023-03-01T02:36:21;6.60;99.90
6357;DHT22;3211;53.452;-2.264;2023-03-01T02:38:52;6.70;99.90
6357;DHT22;3211;53.452;-2.264;2023-03-01T02:41:20;6.60;99.90
6357;DHT22;3211;53.452;-2.264;2023-03-01T02:43:50;6.60;99.90
6357;DHT22;3211;53.452;-2.264;2023-03-01T02:46:19;6.70;99.90
6357;DHT22;3211;53.452;-2.264;2023-03-01T02:48:48;6.70;99.90
6357;DHT22;3211;53.452;-2.264;2023-03-01T02:51:34;6.70;99.90
6357;DHT22;3211;53.452;-2.264;2023-03-01T02:54:11;6.70;99.90
6357;DHT22;3211;53.452;-2.264;2023-03-01T02:56:42;6.70;99.90
6357;DHT22;3211;53.452;-2.264;2023-03-01T02:59:16;6.70;99.90
6357;DHT22;3211;53.452;-2.264;2023-03-01T03:01:44;6.70;99.90
6357;DHT22;3211;53.452;-2.264;2023-03-01T03:04:15;6.70;99.90
6357;DHT22;3211;53.452;-2.264;2023-03-01T03:06:44;6.80;99.90
6357;DHT22;3211;53.452;-2.264;2023-03-01T03:09:11;6.80;99.90
6357;DHT22;3211;53.452;-2.264;2023-03-01T03:11:38;6.90;99.90
6357;DHT22;3211;53.452;-2.264;2023-03-01T03:14:06;6.80;99.90
6357;DHT22;3211;53.452;-2.264;2023-03-01T03:16:41;6.80;99.90
6357;DHT22;3211;53.452;-2.264;2023-03-01T03:19:09;6.90;99.90
6357;DHT22;3211;53.452;-2.264;2023-03-01T03:21:36;6.80;99.10
6357;DHT22;3211;53.452;-2.264;2023-03-01T03:24:03;6.80;99.90
6357;DHT22;3211;53.452;-2.264;2023-03-01T03:26:31;6.80;99.90
6357;DHT22;3211;53.452;-2.264;2023-03-01T03:28:58;6.70;99.90
6357;DHT22;3211;53.452;-2.264;2023-03-01T03:31:24;6.80;99.90
6357;DHT22;3211;53.452;-2.264;2023-03-01T03:33:53;6.80;99.90
6357;DHT22;3211;53.452;-2.264;2023-03-01T03:36:22;6.90;99.90
6357;DHT22;3211;53.452;-2.264;2023-03-01T03:38:49;6.90;99.90
6357;DHT22;3211;53.452;-2.264;2023-03-01T03:41:17;6.90;99.90
6357;DHT22;3211;53.452;-2.264;2023-03-01T03:43:44;6.80;99.90
6357;DHT22;3211;53.452;-2.264;2023-03-01T03:46:11;6.80;99.90
6357;DHT22;3211;53.452;-2.264;2023-03-01T03:48:40;6.80;99.90
6357;DHT22;3211;53.452;-2.264;2023-03-01T03:51:10;6.70;99.90
6357;DHT22;3211;53.452;-2.264;2023-03-01T03:53:37;6.60;99.90
6357;DHT22;3211;53.452;-2.264;2023-03-01T03:56:05;6.60;99.90
6357;DHT22;3211;53.452;-2.264;2023-03-01T03:58:32;6.60;99.90
6357;DHT22;3211;53.452;-2.264;2023-03-01T04:01:00;6.60;99.90
6357;DHT22;3211;53.452;-2.264;2023-03-01T04:03:29;6.60;99.90
6357;DHT22;3211;53.452;-2.264;2023-03-01T04:05:58;6.60;99.90
6357;DHT22;3211;53.452;-2.264;2023-03-01T04:08:27;6.50;99.90
6357;DHT22;3211;53.452;-2.264;2023-03-01T04:10:58;6.50;99.90
6357;DHT22;3211;53.452;-2.264;2023-03-01T04:13:25;6.50;99.90
6357;DHT22;3211;53.452;-2.264;2023-03-01T04:15:53;6.50;99.90
6357;DHT22;3211;53.452;-2.264;2023-03-01T04:18:23;6.40;99.90
6357;DHT22;3211;53.452;-2.264;2023-03-01T04:20:50;6.50;99.90
6357;DHT22;3211;53.452;-2.264;2023-03-01T04:23:21;6.50;99.90
6357;DHT22;3211;53.452;-2.264;2023-03-01T04:25:51;6.50;99.90
6357;DHT22;3211;53.452;-2.264;2023-03-01T04:28:20;6.60;99.90
6357;DHT22;3211;53.452;-2.264;2023-03-01T04:30:49;6.60;99.90
6357;DHT22;3211;53.452;-2.264;2023-03-01T04:33:17;6.60;99.90
6357;DHT22;3211;53.452;-2.264;2023-03-01T04:35:44;6.60;99.90
6357;DHT22;3211;53.452;-2.264;2023-03-01T04:38:11;6.70;99.90
6357;DHT22;3211;53.452;-2.264;2023-03-01T04:40:38;6.60;99.90
6357;DHT22;3211;53.452;-2.264;2023-03-01T04:43:11;6.60;99.90
6357;DHT22;3211;53.452;-2.264;2023-03-01T04:45:39;6.60;99.90
6357;DHT22;3211;53.452;-2.264;2023-03-01T04:48:06;6.70;99.90
6357;DHT22;3211;53.452;-2.264;2023-03-01T04:50:33;6.70;99.90
6357;DHT22;3211;53.452;-2.264;2023-03-01T04:53:01;6.60;99.90
6357;DHT22;3211;53.452;-2.264;2023-03-01T04:55:29;6.70;99.90
6357;DHT22;3211;53.452;-2.264;2023-03-01T04:57:57;6.70;99.90
6357;DHT22;3211;53.452;-2.264;2023-03-01T05:00:25;6.60;99.90
6357;DHT22;3211;53.452;-2.264;2023-03-01T05:02:54;6.60;99.90
6357;DHT22;3211;53.452;-2.264;2023-03-01T05:05:24;6.50;99.90
6357;DHT22;3211;53.452;-2.264;2023-03-01T05:07:53;6.30;99.90
6357;DHT22;3211;53.452;-2.264;2023-03-01T05:10:20;6.30;99.90
6357;DHT22;3211;53.452;-2.264;2023-03-01T05:12:47;6.30;99.90
6357;DHT22;3211;53.452;-2.264;2023-03-01T05:15:14;6.40;99.90
6357;DHT22;3211;53.452;-2.264;2023-03-01T05:17:43;6.50;99.90
6357;DHT22;3211;53.452;-2.264;2023-03-01T05:20:11;6.40;99.90
6357;DHT22;3211;53.452;-2.264;2023-03-01T05:22:38;6.50;99.90
6357;DHT22;3211;53.452;-2.264;2023-03-01T05:25:05;6.60;99.90
6357;DHT22;3211;53.452;-2.264;2023-03-01T05:27:33;6.70;99.90
6357;DHT22;3211;53.452;-2.264;2023-03-01T05:30:00;6.60;99.90
6357;DHT22;3211;53.452;-2.264;2023-03-01T05:32:45;6.60;99.90
6357;DHT22;3211;53.452;-2.264;2023-03-01T05:35:13;6.60;99.90
6357;DHT22;3211;53.452;-2.264;2023-03-01T05:37:41;6.60;99.90
6357;DHT22;3211;53.452;-2.264;2023-03-01T05:40:10;6.50;99.90
6357;DHT22;3211;53.452;-2.264;2023-03-01T05:42:43;6.50;99.90
6357;DHT22;3211;53.452;-2.264;2023-03-01T05:45:11;6.50;99.90
6357;DHT22;3211;53.452;-2.264;2023-03-01T05:47:39;6.60;99.90
6357;DHT22;3211;53.452;-2.264;2023-03-01T05:50:11;6.60;99.90
6357;DHT22;3211;53.452;-2.264;2023-03-01T05:52:39;6.60;99.90
6357;DHT22;3211;53.452;-2.264;2023-03-01T05:55:07;6.70;99.90
6357;DHT22;3211;53.452;-2.264;2023-03-01T05:57:34;6.60;99.90
6357;DHT22;3211;53.452;-2.264;2023-03-01T06:00:01;6.70;99.90
6357;DHT22;3211;53.452;-2.264;2023-03-01T06:02:46;6.60;99.90
6357;DHT22;3211;53.452;-2.264;2023-03-01T06:05:33;6.60;99.90
6357;DHT22;3211;53.452;-2.264;2023-03-01T06:08:01;6.70;99.90
6357;DHT22;3211;53.452;-2.264;2023-03-01T06:10:29;6.70;99.90
6357;DHT22;3211;53.452;-2.264;2023-03-01T06:12:56;6.60;99.90
6357;DHT22;3211;53.452;-2.264;2023-03-01T06:15:23;6.60;99.90
6357;DHT22;3211;53.452;-2.264;2023-03-01T06:17:51;6.60;99.90
6357;DHT22;3211;53.452;-2.264;2023-03-01T06:20:19;6.60;99.90
6357;DHT22;3211;53.452;-2.264;2023-03-01T06:22:48;6.50;99.90
6357;DHT22;3211;53.452;-2.264;2023-03-01T06:25:17;6.60;99.90
6357;DHT22;3211;53.452;-2.264;2023-03-01T06:27:45;6.60;99.90
6357;DHT22;3211;53.452;-2.264;2023-03-01T06:30:15;6.60;99.90
6357;DHT22;3211;53.452;-2.264;2023-03-01T06:32:42;6.60;99.90
6357;DHT22;3211;53.452;-2.264;2023-03-01T06:35:10;6.60;99.90
6357;DHT22;3211;53.452;-2.264;2023-03-01T06:37:39;6.70;99.90
6357;DHT22;3211;53.452;-2.264;2023-03-01T06:40:09;6.70;99.90
6357;DHT22;3211;53.452;-2.264;2023-03-01T06:42:38;6.70;99.90
6357;DHT22;3211;53.452;-2.264;2023-03-01T06:45:06;6.60;99.90
6357;DHT22;3211;53.452;-2.264;2023-03-01T06:47:34;6.70;99.90
6357;DHT22;3211;53.452;-2.264;2023-03-01T06:50:02;6.70;99.90
6357;DHT22;3211;53.452;-2.264;2023-03-01T06:52:29;6.70;99.90
6357;DHT22;3211;53.452;-2.264;2023-03-01T06:54:56;6.70;99.90
6357;DHT22;3211;53.452;-2.264;2023-03-01T06:57:24;6.70;99.90
6357;DHT22;3211;53.452;-2.264;2023-03-01T06:59:51;6.80;99.90
6357;DHT22;3211;53.452;-2.264;2023-03-01T07:02:18;6.70;99.90
6357;DHT22;3211;53.452;-2.264;2023-03-01T07:04:45;6.80;99.90
6357;DHT22;3211;53.452;-2.264;2023-03-01T07:07:12;6.70;99.90
6357;DHT22;3211;53.452;-2.264;2023-03-01T07:09:39;6.80;99.90
6357;DHT22;3211;53.452;-2.264;2023-03-01T07:12:07;6.70;99.90
6357;DHT22;3211;53.452;-2.264;2023-03-01T07:14:35;6.70;99.90
6357;DHT22;3211;53.452;-2.264;2023-03-01T07:17:02;6.70;99.90
6357;DHT22;3211;53.452;-2.264;2023-03-01T07:19:29;6.70;99.90
6357;DHT22;3211;53.452;-2.264;2023-03-01T07:21:56;6.70;99.90
6357;DHT22;3211;53.452;-2.264;2023-03-01T07:24:23;6.70;99.90
6357;DHT22;3211;53.452;-2.264;2023-03-01T07:26:50;6.80;99.90
6357;DHT22;3211;53.452;-2.264;2023-03-01T07:29:17;6.80;99.90
6357;DHT22;3211;53.452;-2.264;2023-03-01T07:31:46;6.70;99.90
6357;DHT22;3211;53.452;-2.264;2023-03-01T07:34:13;6.80;99.90
6357;DHT22;3211;53.452;-2.264;2023-03-01T07:36:40;6.80;99.90
6357;DHT22;3211;53.452;-2.264;2023-03-01T07:39:09;6.70;99.90
6357;DHT22;3211;53.452;-2.264;2023-03-01T07:41:36;6.80;99.90
6357;DHT22;3211;53.452;-2.264;2023-03-01T07:44:03;6.90;99.90
6357;DHT22;3211;53.452;-2.264;2023-03-01T07:46:30;6.80;99.90
6357;DHT22;3211;53.452;-2.264;2023-03-01T07:48:58;6.70;99.90
6357;DHT22;3211;53.452;-2.264;2023-03-01T07:51:25;6.80;99.90
6357;DHT22;3211;53.452;-2.264;2023-03-01T07:53:52;6.80;99.90
6357;DHT22;3211;53.452;-2.264;2023-03-01T07:56:19;6.80;99.90
6357;DHT22;3211;53.452;-2.264;2023-03-01T07:58:48;6.90;99.90
6357;DHT22;3211;53.452;-2.264;2023-03-01T08:01:16;6.90;99.90
6357;DHT22;3211;53.452;-2.264;2023-03-01T08:03:43;7.00;99.90
6357;DHT22;3211;53.452;-2.264;2023-03-01T08:06:13;7.10;99.90
6357;DHT22;3211;53.452;-2.264;2023-03-01T08:08:40;7.00;99.90
6357;DHT22;3211;53.452;-2.264;2023-03-01T08:11:14;7.00;99.90
6357;DHT22;3211;53.452;-2.264;2023-03-01T08:13:41;7.10;99.90
6357;DHT22;3211;53.452;-2.264;2023-03-01T08:16:11;7.10;99.90
6357;DHT22;3211;53.452;-2.264;2023-03-01T08:18:39;7.00;99.90
6357;DHT22;3211;53.452;-2.264;2023-03-01T08:21:07;7.00;99.90
6357;DHT22;3211;53.452;-2.264;2023-03-01T08:23:35;7.00;99.90
6357;DHT22;3211;53.452;-2.264;2023-03-01T08:26:04;7.00;99.90
6357;DHT22;3211;53.452;-2.264;2023-03-01T08:28:32;6.90;99.90
6357;DHT22;3211;53.452;-2.264;2023-03-01T08:30:59;7.00;99.90
6357;DHT22;3211;53.452;-2.264;2023-03-01T08:33:26;7.10;99.90
6357;DHT22;3211;53.452;-2.264;2023-03-01T08:36:02;7.00;99.90
6357;DHT22;3211;53.452;-2.264;2023-03-01T08:38:29;7.10;99.90
6357;DHT22;3211;53.452;-2.264;2023-03-01T08:40:59;7.10;99.90
6357;DHT22;3211;53.452;-2.264;2023-03-01T08:43:26;7.10;99.90
6357;DHT22;3211;53.452;-2.264;2023-03-01T08:45:53;7.10;99.90
6357;DHT22;3211;53.452;-2.264;2023-03-01T08:48:20;7.00;99.90
6357;DHT22;3211;53.452;-2.264;2023-03-01T08:50:47;7.10;99.90
6357;DHT22;3211;53.452;-2.264;2023-03-01T08:53:14;7.20;99.90
6357;DHT22;3211;53.452;-2.264;2023-03-01T08:55:40;7.30;99.90
6357;DHT22;3211;53.452;-2.264;2023-03-01T08:58:09;7.40;99.90
6357;DHT22;3211;53.452;-2.264;2023-03-01T09:00:36;7.60;99.90
6357;DHT22;3211;53.452;-2.264;2023-03-01T09:03:03;7.70;99.90
6357;DHT22;3211;53.452;-2.264;2023-03-01T09:05:31;7.80;99.90
6357;DHT22;3211;53.452;-2.264;2023-03-01T09:07:58;7.70;99.90
6357;DHT22;3211;53.452;-2.264;2023-03-01T09:10:25;7.80;99.90
6357;DHT22;3211;53.452;-2.264;2023-03-01T09:12:53;7.80;99.90
6357;DHT22;3211;53.452;-2.264;2023-03-01T09:15:21;7.80;99.90
6357;DHT22;3211;53.452;-2.264;2023-03-01T09:17:48;7.70;99.90
6357;DHT22;3211;53.452;-2.264;2023-03-01T09:20:16;7.80;99.90
6357;DHT22;3211;53.452;-2.264;2023-03-01T09:22:43;7.80;99.90
6357;DHT22;3211;53.452;-2.264;2023-03-01T09:25:10;7.80;99.40
6357;DHT22;3211;53.452;-2.264;2023-03-01T09:27:37;7.80;94.10
6357;DHT22;3211;53.452;-2.264;2023-03-01T09:30:05;7.80;94.10
6357;DHT22;3211;53.452;-2.264;2023-03-01T09:32:33;7.80;91.30
6357;DHT22;3211;53.452;-2.264;2023-03-01T09:35:00;7.90;90.30
6357;DHT22;3211;53.452;-2.264;2023-03-01T09:37:31;7.90;92.60
6357;DHT22;3211;53.452;-2.264;2023-03-01T09:39:58;7.80;90.70
6357;DHT22;3211;53.452;-2.264;2023-03-01T09:42:25;8.00;93.80
6357;DHT22;3211;53.452;-2.264;2023-03-01T09:44:57;7.90;88.70
6357;DHT22;3211;53.452;-2.264;2023-03-01T09:47:28;8.00;89.10
6357;DHT22;3211;53.452;-2.264;2023-03-01T09:50:03;8.00;90.30
6357;DHT22;3211;53.452;-2.264;2023-03-01T09:52:37;8.00;89.80
6357;DHT22;3211;53.452;-2.264;2023-03-01T09:55:09;8.00;91.30
6357;DHT22;3211;53.452;-2.264;2023-03-01T09:57:43;8.00;89.30
6357;DHT22;3211;53.452;-2.264;2023-03-01T10:00:28;8.00;90.70
6357;DHT22;3211;53.452;-2.264;2023-03-01T10:03:02;8.00;91.00
6357;DHT22;3211;53.452;-2.264;2023-03-01T10:05:44;8.00;90.10
6357;DHT22;3211;53.452;-2.264;2023-03-01T10:08:36;7.90;89.90
6357;DHT22;3211;53.452;-2.264;2023-03-01T10:11:19;8.20;92.30
6357;DHT22;3211;53.452;-2.264;2023-03-01T10:13:50;8.40;84.60
6357;DHT22;3211;53.452;-2.264;2023-03-01T10:16:24;8.60;79.80
6357;DHT22;3211;53.452;-2.264;2023-03-01T10:18:58;8.80;81.10
6357;DHT22;3211;53.452;-2.264;2023-03-01T10:21:28;8.80;75.40
6357;DHT22;3211;53.452;-2.264;2023-03-01T10:24:07;8.60;63.40
6357;DHT22;3211;53.452;-2.264;2023-03-01T10:26:44;8.50;66.80
6357;DHT22;3211;53.452;-2.264;2023-03-01T10:29:13;8.60;71.50
6357;DHT22;3211;53.452;-2.264;2023-03-01T10:31:43;8.60;65.20
6357;DHT22;3211;53.452;-2.264;2023-03-01T10:34:13;8.70;66.40
6357;DHT22;3211;53.452;-2.264;2023-03-01T10:36:44;8.70;61.70
6357;DHT22;3211;53.452;-2.264;2023-03-01T10:39:14;8.80;66.80
6357;DHT22;3211;53.452;-2.264;2023-03-01T10:42:00;8.60;60.60
6357;DHT22;3211;53.452;-2.264;2023-03-01T10:44:44;8.70;68.80
6357;DHT22;3211;53.452;-2.264;2023-03-01T10:47:20;8.60;68.20
6357;DHT22;3211;53.452;-2.264;2023-03-01T10:49:59;8.50;60.60
6357;DHT22;3211;53.452;-2.264;2023-03-01T10:52:32;8.50;62.10
6357;DHT22;3211;53.452;-2.264;2023-03-01T10:55:03;8.60;63.00
6357;DHT22;3211;53.452;-2.264;2023-03-01T10:57:34;8.60;57.20
6357;DHT22;3211;53.452;-2.264;2023-03-01T11:00:21;8.70;53.80
6357;DHT22;3211;53.452;-2.264;2023-03-01T11:02:51;8.70;55.50
6357;DHT22;3211;53.452;-2.264;2023-03-01T11:05:21;8.60;56.80
6357;DHT22;3211;53.452;-2.264;2023-03-01T11:07:52;8.70;56.50
6357;DHT22;3211;53.452;-2.264;2023-03-01T11:10:22;8.80;60.60
6357;DHT22;3211;53.452;-2.264;2023-03-01T11:12:51;8.60;61.10
6357;DHT22;3211;53.452;-2.264;2023-03-01T11:15:25;8.60;75.80
6357;DHT22;3211;53.452;-2.264;2023-03-01T11:17:53;8.70;86.30
6357;DHT22;3211;53.452;-2.264;2023-03-01T11:20:26;9.00;89.60
6357;DHT22;3211;53.452;-2.264;2023-03-01T11:22:57;9.40;82.10
6357;DHT22;3211;53.452;-2.264;2023-03-01T11:25:29;9.90;73.30
6357;DHT22;3211;53.452;-2.264;2023-03-01T11:27:59;9.90;54.10
6357;DHT22;3211;53.452;-2.264;2023-03-01T11:30:29;9.80;45.50
6357;DHT22;3211;53.452;-2.264;2023-03-01T11:33:05;9.80;45.20
6357;DHT22;3211;53.452;-2.264;2023-03-01T11:35:42;9.70;50.50
6357;DHT22;3211;53.452;-2.264;2023-03-01T11:38:19;9.50;54.80
6357;DHT22;3211;53.452;-2.264;2023-03-01T11:40:51;9.20;55.30
6357;DHT22;3211;53.452;-2.264;2023-03-01T11:43:26;9.00;62.50
6357;DHT22;3211;53.452;-2.264;2023-03-01T11:46:08;8.70;56.30
6357;DHT22;3211;53.452;-2.264;2023-03-01T11:48:52;8.70;62.40
6357;DHT22;3211;53.452;-2.264;2023-03-01T11:51:30;8.70;57.80
6357;DHT22;3211;53.452;-2.264;2023-03-01T11:54:21;8.70;53.70
6357;DHT22;3211;53.452;-2.264;2023-03-01T11:56:54;8.90;51.40
6357;DHT22;3211;53.452;-2.264;2023-03-01T11:59:46;9.10;45.00
6357;DHT22;3211;53.452;-2.264;2023-03-01T12:02:41;9.50;44.00
6357;DHT22;3211;53.452;-2.264;2023-03-01T12:05:24;9.80;35.90
6357;DHT22;3211;53.452;-2.264;2023-03-01T12:08:04;10.20;26.60
6357;DHT22;3211;53.452;-2.264;2023-03-01T12:10:41;10.40;20.50
6357;DHT22;3211;53.452;-2.264;2023-03-01T12:13:25;10.10;24.20
6357;DHT22;3211;53.452;-2.264;2023-03-01T12:16:12;9.90;27.40
6357;DHT22;3211;53.452;-2.264;2023-03-01T12:21:51;9.40;47.30
6357;DHT22;3211;53.452;-2.264;2023-03-01T12:24:43;9.70;50.00
6357;DHT22;3211;53.452;-2.264;2023-03-01T12:27:31;10.10;41.30
6357;DHT22;3211;53.452;-2.264;2023-03-01T12:30:15;10.20;32.70
6357;DHT22;3211;53.452;-2.264;2023-03-01T12:32:56;10.40;36.50
6357;DHT22;3211;53.452;-2.264;2023-03-01T12:35:39;10.40;31.30
6357;DHT22;3211;53.452;-2.264;2023-03-01T12:38:21;10.40;30.70
6357;DHT22;3211;53.452;-2.264;2023-03-01T12:41:11;10.10;27.70
6357;DHT22;3211;53.452;-2.264;2023-03-01T12:43:54;10.20;29.10
6357;DHT22;3211;53.452;-2.264;2023-03-01T12:46:38;10.20;29.90
6357;DHT22;3211;53.452;-2.264;2023-03-01T12:49:10;10.10;31.50
6357;DHT22;3211;53.452;-2.264;2023-03-01T12:51:41;9.90;28.20
6357;DHT22;3211;53.452;-2.264;2023-03-01T12:54:15;9.80;29.90
6357;DHT22;3211;53.452;-2.264;2023-03-01T12:56:43;9.50;46.70
6357;DHT22;3211;53.452;-2.264;2023-03-01T12:59:22;9.30;75.40
6357;DHT22;3211;53.452;-2.264;2023-03-01T13:01:54;9.20;90.50
6357;DHT22;3211;53.452;-2.264;2023-03-01T13:04:45;9.30;95.20
6357;DHT22;3211;53.452;-2.264;2023-03-01T13:07:25;9.50;99.10
6357;DHT22;3211;53.452;-2.264;2023-03-01T13:10:08;9.80;96.10
6357;DHT22;3211;53.452;-2.264;2023-03-01T13:12:57;10.00;91.50
6357;DHT22;3211;53.452;-2.264;2023-03-01T13:15:31;9.90;80.00
6357;DHT22;3211;53.452;-2.264;2023-03-01T13:17:59;9.70;67.90
6357;DHT22;3211;53.452;-2.264;2023-03-01T13:20:31;9.60;73.80
6357;DHT22;3211;53.452;-2.264;2023-03-01T13:23:08;9.40;79.50
6357;DHT22;3211;53.452;-2.264;2023-03-01T13:26:00;9.20;90.00
6357;DHT22;3211;53.452;-2.264;2023-03-01T13:28:55;9.00;99.90
6357;DHT22;3211;53.452;-2.264;2023-03-01T13:34:55;9.10;99.90
6357;DHT22;3211;53.452;-2.264;2023-03-01T13:37:31;9.40;99.90
6357;DHT22;3211;53.452;-2.264;2023-03-01T13:40:01;9.60;99.90
6357;DHT22;3211;53.452;-2.264;2023-03-01T13:42:42;10.00;99.90
6357;DHT22;3211;53.452;-2.264;2023-03-01T13:45:21;10.30;99.60
6357;DHT22;3211;53.452;-2.264;2023-03-01T13:47:53;10.70;96.00
6357;DHT22;3211;53.452;-2.264;2023-03-01T13:50:27;11.00;94.20
6357;DHT22;3211;53.452;-2.264;2023-03-01T13:52:58;10.60;72.80
6357;DHT22;3211;53.452;-2.264;2023-03-01T13:55:30;10.30;80.90
6357;DHT22;3211;53.452;-2.264;2023-03-01T13:58:00;9.80;85.60
6357;DHT22;3211;53.452;-2.264;2023-03-01T14:00:31;9.70;82.70
6357;DHT22;3211;53.452;-2.264;2023-03-01T14:03:10;9.60;75.00
6357;DHT22;3211;53.452;-2.264;2023-03-01T14:05:40;9.50;80.60
6357;DHT22;3211;53.452;-2.264;2023-03-01T14:08:22;9.30;76.20
6357;DHT22;3211;53.452;-2.264;2023-03-01T14:10:58;9.50;88.40
6357;DHT22;3211;53.452;-2.264;2023-03-01T14:13:41;9.60;78.20
6357;DHT22;3211;53.452;-2.264;2023-03-01T14:16:24;10.00;72.30
6357;DHT22;3211;53.452;-2.264;2023-03-01T14:19:02;10.70;59.90
6357;DHT22;3211;53.452;-2.264;2023-03-01T14:21:34;11.20;42.20
6357;DHT22;3211;53.452;-2.264;2023-03-01T14:24:02;10.90;37.80
6357;DHT22;3211;53.452;-2.264;2023-03-01T14:26:31;10.40;52.80
6357;DHT22;3211;53.452;-2.264;2023-03-01T14:29:00;9.80;79.60
6357;DHT22;3211;53.452;-2.264;2023-03-01T14:31:34;9.50;93.80
6357;DHT22;3211;53.452;-2.264;2023-03-01T14:34:03;9.40;97.70
6357;DHT22;3211;53.452;-2.264;2023-03-01T14:36:32;9.40;99.30
6357;DHT22;3211;53.452;-2.264;2023-03-01T14:39:02;9.50;98.50
6357;DHT22;3211;53.452;-2.264;2023-03-01T14:41:42;9.60;98.40
6357;DHT22;3211;53.452;-2.264;2023-03-01T14:44:15;9.70;93.10
6357;DHT22;3211;53.452;-2.264;2023-03-01T14:46:44;12.00;61.60
6357;DHT22;3211;53.452;-2.264;2023-03-01T14:49:15;14.20;14.00
6357;DHT22;3211;53.452;-2.264;2023-03-01T14:51:49;14.70;2.30
6357;DHT22;3211;53.452;-2.264;2023-03-01T14:54:25;13.60;1.30
6357;DHT22;3211;53.452;-2.264;2023-03-01T14:56:54;12.50;7.70
6357;DHT22;3211;53.452;-2.264;2023-03-01T14:59:22;11.80;22.80
6357;DHT22;3211;53.452;-2.264;2023-03-01T15:01:51;11.10;16.10
6357;DHT22;3211;53.452;-2.264;2023-03-01T15:04:18;10.90;25.30
6357;DHT22;3211;53.452;-2.264;2023-03-01T15:06:46;11.00;23.20
6357;DHT22;3211;53.452;-2.264;2023-03-01T15:09:15;10.70;22.30
6357;DHT22;3211;53.452;-2.264;2023-03-01T15:11:44;10.40;28.80
6357;DHT22;3211;53.452;-2.264;2023-03-01T15:14:28;10.20;41.80
6357;DHT22;3211;53.452;-2.264;2023-03-01T15:16:56;10.10;48.10
6357;DHT22;3211;53.452;-2.264;2023-03-01T15:19:26;10.10;51.80
6357;DHT22;3211;53.452;-2.264;2023-03-01T15:21:55;9.80;47.80
6357;DHT22;3211;53.452;-2.264;2023-03-01T15:24:25;9.70;55.90
6357;DHT22;3211;53.452;-2.264;2023-03-01T15:26:57;9.50;61.00
6357;DHT22;3211;53.452;-2.264;2023-03-01T15:29:29;9.30;77.60
6357;DHT22;3211;53.452;-2.264;2023-03-01T15:31:59;9.00;92.10
6357;DHT22;3211;53.452;-2.264;2023-03-01T15:34:28;9.10;97.90
6357;DHT22;3211;53.452;-2.264;2023-03-01T15:36:57;9.10;98.60
6357;DHT22;3211;53.452;-2.264;2023-03-01T15:39:34;9.30;99.60
6357;DHT22;3211;53.452;-2.264;2023-03-01T15:42:05;9.50;96.60
6357;DHT22;3211;53.452;-2.264;2023-03-01T15:44:34;10.70;65.00
6357;DHT22;3211;53.452;-2.264;2023-03-01T15:47:07;10.30;70.90
6357;DHT22;3211;53.452;-2.264;2023-03-01T15:49:38;9.90;85.70
6357;DHT22;3211;53.452;-2.264;2023-03-01T15:52:09;9.60;79.90
6357;DHT22;3211;53.452;-2.264;2023-03-01T15:54:39;9.50;84.10
6357;DHT22;3211;53.452;-2.264;2023-03-01T15:57:12;9.40;87.50
6357;DHT22;3211;53.452;-2.264;2023-03-01T15:59:40;9.40;90.70
6357;DHT22;3211;53.452;-2.264;2023-03-01T16:02:09;9.30;91.30
6357;DHT22;3211;53.452;-2.264;2023-03-01T16:04:36;9.10;87.50
6357;DHT22;3211;53.452;-2.264;2023-03-01T16:07:03;9.00;91.60
6357;DHT22;3211;53.452;-2.264;2023-03-01T16:09:30;9.00;95.70
6357;DHT22;3211;53.452;-2.264;2023-03-01T16:11:57;8.80;98.70
6357;DHT22;3211;53.452;-2.264;2023-03-01T16:14:26;8.60;99.90
6357;DHT22;3211;53.452;-2.264;2023-03-01T16:16:53;8.70;99.90
6357;DHT22;3211;53.452;-2.264;2023-03-01T16:19:20;8.80;99.90
6357;DHT22;3211;53.452;-2.264;2023-03-01T16:21:47;8.80;99.90
6357;DHT22;3211;53.452;-2.264;2023-03-01T16:24:15;8.70;99.90
6357;DHT22;3211;53.452;-2.264;2023-03-01T16:26:42;8.70;99.90
6357;DHT22;3211;53.452;-2.264;2023-03-01T16:29:09;8.60;99.90
6357;DHT22;3211;53.452;-2.264;2023-03-01T16:31:38;8.50;99.90